Terminal Aerodrome Forecast
Issued by NWS

Home | Current Version | Previous Version | Text Only | Print | Product List | Glossary On
Versions: 1 2 3 4 5 6 7 8 9 10 11 12 13 14 15 16 17 18 19 20 21
479
FTUS43 KDLH 202341
TAFBRD
TAF
KBRD 202341Z 2100/2124 18007KT P6SM FEW035
     FM210500 19008KT P6SM VCTS SCT040CB BKN100
     FM210900 17005KT 4SM BR VCTS BKN025CB OVC040
     FM211400 26005KT P6SM SCT025 BKN150=

USA.gov is the U.S. government's official web portal to all federal, state and local government web resources and services.